Time;durP1;ratioP1;P1;durP2;ratioP2;P2;SDS_P1;SDS_P2;PMS_P1;PMS_P2;Temp;Humidity;BMP_temperature;BMP_pressure;BME280_temperature;BME280_humidity;BME280_pressure;Samples;Min_cycle;Max_cycle;Signal;HPM_P1;HPM_P2
2021/11/17 02:25:41;;;;;;;;;56.00;40.00;;;;;9.58;70.40;101387.69;5093103;27;45853;-62
2021/11/17 02:28:15;;;;;;;;;49.50;38.00;;;;;9.54;70.18;101394.94;5060563;27;45483;-62
2021/11/17 02:30:47;;;;;;;;;51.25;38.25;;;;;9.52;70.27;101382.88;5099423;27;45291;-61
2021/11/17 02:33:21;;;;;;;;;47.75;38.00;;;;;9.49;69.97;101376.91;5099392;27;45571;-62
2021/11/17 02:36:28;;;;;;;;;46.50;35.75;;;;;9.46;70.04;101365.81;5099346;27;45415;-61
2021/11/17 02:39:15;;;;;;;;;49.50;38.25;;;;;9.42;69.90;101365.16;5097349;27;45733;-62
2021/11/17 02:42:14;;;;;;;;;49.75;38.00;;;;;9.37;69.69;101353.34;5099194;27;45427;-62
2021/11/17 02:44:46;;;;;;;;;52.00;38.00;;;;;9.31;69.93;101350.19;5099262;27;45381;-61
2021/11/17 02:47:30;;;;;;;;;50.75;38.50;;;;;9.24;69.92;101356.81;5099089;27;45614;-61
2021/11/17 02:50:09;;;;;;;;;51.50;38.00;;;;;9.18;70.01;101341.50;5080347;27;45769;-62
2021/11/17 02:52:49;;;;;;;;;51.25;39.00;;;;;9.13;69.66;101347.06;5099059;27;45355;-61
2021/11/17 02:55:44;;;;;;;;;43.25;36.00;;;;;9.12;69.45;101344.53;5099126;27;45391;-62
2021/11/17 02:58:28;;;;;;;;;53.75;41.25;;;;;9.05;69.38;101350.22;5080604;27;45309;-62
2021/11/17 03:01:20;;;;;;;;;48.75;38.00;;;;;9.02;69.38;101365.31;5098905;27;45247;-61
2021/11/17 03:04:03;;;;;;;;;51.25;39.75;;;;;8.97;69.54;101370.03;5099072;27;45413;-62
2021/11/17 03:06:56;;;;;;;;;53.50;40.50;;;;;8.91;69.70;101371.31;5098947;27;45290;-62
2021/11/17 03:09:34;;;;;;;;;51.50;40.75;;;;;8.88;69.52;101379.38;5098690;27;45421;-61
2021/11/17 03:12:18;;;;;;;;;51.50;40.25;;;;;8.81;69.68;101386.78;5098642;27;45429;-62
2021/11/17 03:14:59;;;;;;;;;50.25;39.00;;;;;8.74;69.78;101386.38;5098815;27;45304;-62
2021/11/17 03:17:40;;;;;;;;;50.25;39.25;;;;;8.69;69.87;101396.31;5080337;27;45331;-61
2021/11/17 03:20:17;;;;;;;;;50.75;39.75;;;;;8.67;69.88;101402.63;5098453;27;45318;-62
2021/11/17 03:23:05;;;;;;;;;57.00;42.00;;;;;8.65;69.67;101407.13;5098457;27;45890;-62
2021/11/17 03:25:43;;;;;;;;;49.00;39.25;;;;;8.60;69.81;101413.50;5097891;27;45296;-62
2021/11/17 03:28:27;;;;;;;;;51.50;38.25;;;;;8.56;69.99;101409.41;5098420;27;45377;-62
2021/11/17 03:31:13;;;;;;;;;52.75;38.50;;;;;8.54;70.16;101419.16;5098003;27;46247;-61
2021/11/17 03:34:04;;;;;;;;;51.00;38.25;;;;;8.52;69.96;101425.41;5098224;27;45757;-60
2021/11/17 03:36:49;;;;;;;;;53.50;38.50;;;;;8.51;70.13;101429.81;5098469;27;45356;-61
2021/11/17 03:39:30;;;;;;;;;50.00;37.25;;;;;8.50;70.15;101422.91;5089437;27;45451;-62
2021/11/17 03:42:40;;;;;;;;;50.50;38.50;;;;;8.47;70.30;101423.06;5098185;27;46528;-62
2021/11/17 03:45:30;;;;;;;;;49.75;38.75;;;;;8.45;70.71;101428.44;5098203;27;45827;-62
2021/11/17 03:48:16;;;;;;;;;45.75;36.00;;;;;8.45;70.62;101441.53;5098296;27;45338;-61
2021/11/17 03:51:13;;;;;;;;;47.50;35.50;;;;;8.44;70.11;101439.84;5098193;27;45366;-62
2021/11/17 03:53:50;;;;;;;;;40.75;34.25;;;;;8.43;70.30;101432.94;5098002;27;45688;-61
2021/11/17 03:56:36;;;;;;;;;43.25;36.00;;;;;8.45;70.34;101444.13;5098040;27;45816;-62
2021/11/17 03:59:04;;;;;;;;;48.50;37.50;;;;;8.45;70.32;101446.75;5098412;27;45326;-62
2021/11/17 04:01:53;;;;;;;;;51.00;39.50;;;;;8.48;70.44;101460.59;5097936;27;45521;-62
2021/11/17 04:04:18;;;;;;;;;45.75;36.75;;;;;8.47;70.37;101457.13;5097960;27;46356;-62
2021/11/17 04:06:56;;;;;;;;;51.33;37.33;;;;;8.50;70.55;101461.34;5097719;27;45295;-62
2021/11/17 04:09:59;;;;;;;;;49.50;38.50;;;;;8.49;70.47;101454.41;5097884;27;45407;-62
2021/11/17 04:12:48;;;;;;;;;55.50;39.00;;;;;8.45;70.73;101448.53;5097732;27;45359;-62
2021/11/17 04:15:14;;;;;;;;;51.00;34.00;;;;;8.45;70.74;101462.47;5097509;27;46144;-62
2021/11/17 04:18:07;;;;;;;;;50.67;35.33;;;;;8.44;71.16;101466.03;5097533;27;45322;-62
2021/11/17 04:20:59;;;;;;;;;46.75;34.25;;;;;8.43;71.27;101459.13;5097584;27;45386;-62
2021/11/17 04:23:49;;;;;;;;;47.00;36.00;;;;;8.44;71.42;101468.66;5097598;27;45425;-62
2021/11/17 04:26:35;;;;;;;;;48.00;39.25;;;;;8.48;71.11;101471.06;5079285;27;46316;-62
2021/11/17 04:29:43;;;;;;;;;48.50;38.00;;;;;8.50;71.25;101474.44;5095590;27;45868;-62
2021/11/17 04:32:41;;;;;;;;;48.00;36.75;;;;;8.53;71.22;101474.25;5097328;27;45238;-62
2021/11/17 04:35:29;;;;;;;;;49.00;38.75;;;;;8.54;71.17;101470.69;5045238;27;45458;-61
2021/11/17 04:38:22;;;;;;;;;47.00;36.25;;;;;8.57;71.45;101481.81;5097065;27;45648;-61
2021/11/17 04:40:59;;;;;;;;;52.50;36.00;;;;;8.58;71.26;101480.88;5096006;27;45473;-62
2021/11/17 04:44:09;;;;;;;;;42.50;35.25;;;;;8.60;71.56;101476.38;5097255;27;45389;-62
2021/11/17 04:46:52;;;;;;;;;42.00;34.75;;;;;8.64;71.59;101476.19;5034207;28;45321;-61
2021/11/17 04:49:48;;;;;;;;;49.00;34.50;;;;;8.65;71.54;101483.94;5033961;28;45382;-62
2021/11/17 04:52:38;;;;;;;;;49.50;36.50;;;;;8.66;71.46;101480.38;5086225;27;45373;-61
2021/11/17 04:55:19;;;;;;;;;49.50;39.00;;;;;8.67;71.51;101474.19;5097135;27;45394;-61
2021/11/17 04:58:03;;;;;;;;;44.25;35.25;;;;;8.69;71.56;101481.97;5097070;27;45282;-61
2021/11/17 05:00:37;;;;;;;;;46.25;38.00;;;;;8.71;71.36;101477.47;5096970;27;46519;-61
2021/11/17 05:03:15;;;;;;;;;48.00;36.00;;;;;8.72;71.44;101479.16;5096854;27;45292;-62
2021/11/17 05:05:46;;;;;;;;;48.75;38.75;;;;;8.72;71.52;101474.72;5096890;27;45369;-62
2021/11/17 05:08:20;;;;;;;;;50.75;38.50;;;;;8.76;71.71;101475.34;5078836;27;45191;-62
2021/11/17 05:11:13;;;;;;;;;47.50;38.25;;;;;8.78;71.65;101475.28;5096689;27;46773;-61
2021/11/17 05:13:59;;;;;;;;;47.00;38.00;;;;;8.80;71.79;101473.38;5096647;27;45294;-62
2021/11/17 05:17:00;;;;;;;;;50.00;38.50;;;;;8.81;71.96;101473.28;5096861;27;45338;-61
2021/11/17 05:19:37;;;;;;;;;48.25;36.50;;;;;8.84;71.82;101472.25;5072631;27;45415;-61
2021/11/17 05:22:31;;;;;;;;;51.50;36.25;;;;;8.85;72.08;101471.31;5096795;27;46346;-61
2021/11/17 05:25:17;;;;;;;;;51.75;36.25;;;;;8.90;72.10;101474.47;5096492;27;45222;-62
2021/11/17 05:28:04;;;;;;;;;51.25;36.00;;;;;8.91;71.92;101473.53;5096735;27;45354;-62
2021/11/17 05:30:36;;;;;;;;;51.25;39.00;;;;;8.95;72.25;101468.91;5096665;27;45287;-62
2021/11/17 05:33:23;;;;;;;;;50.00;39.00;;;;;8.97;71.92;101467.03;5096566;27;46469;-61
2021/11/17 05:36:09;;;;;;;;;50.25;36.00;;;;;8.98;72.19;101466.94;5096559;27;45377;-62
2021/11/17 05:38:43;;;;;;;;;44.25;37.00;;;;;8.99;72.04;101466.00;5096567;27;45331;-62
2021/11/17 05:41:18;;;;;;;;;49.50;36.25;;;;;9.00;72.37;101474.69;5096478;27;45249;-61
2021/11/17 05:43:53;;;;;;;;;46.75;36.25;;;;;9.00;72.12;101469.44;5078158;27;46311;-62
2021/11/17 05:46:55;;;;;;;;;50.00;37.25;;;;;9.00;72.13;101467.69;5096326;27;45350;-62
2021/11/17 05:49:36;;;;;;;;;47.75;35.75;;;;;9.03;72.24;101477.94;5096505;27;45295;-62
2021/11/17 05:52:13;;;;;;;;;53.25;38.50;;;;;9.04;72.15;101479.59;5096578;27;45351;-62
2021/11/17 05:54:56;;;;;;;;;52.75;40.00;;;;;9.03;72.02;101472.69;5099599;27;45448;-62
2021/11/17 05:57:36;;;;;;;;;37.75;30.25;;;;;9.04;72.21;101469.13;5099908;27;45382;-61
2021/11/17 06:00:24;;;;;;;;;41.25;35.00;;;;;9.05;72.28;101473.41;5099867;27;45342;-62
2021/11/17 06:02:52;;;;;;;;;55.25;40.50;;;;;9.09;72.25;101460.97;5081174;27;45465;-61
2021/11/17 06:05:18;;;;;;;;;51.25;37.75;;;;;9.10;72.47;101460.03;5099508;27;45277;-61
2021/11/17 06:07:43;;;;;;;;;43.00;35.67;;;;;9.12;72.13;101459.91;5098997;27;45407;-62
2021/11/17 06:10:10;;;;;;;;;47.67;38.00;;;;;9.11;72.29;101458.22;5099465;27;45323;-61
2021/11/17 06:12:36;;;;;;;;;50.00;39.25;;;;;9.10;72.27;101453.91;5081281;27;45205;-62
2021/11/17 06:15:02;;;;;;;;;61.50;45.75;;;;;9.10;72.21;101456.53;5098380;27;74299;-62
2021/11/17 06:17:28;;;;;;;;;60.50;43.25;;;;;9.10;72.21;101452.16;5063327;27;45432;-61
2021/11/17 06:19:54;;;;;;;;;58.75;44.75;;;;;9.10;72.51;101451.31;5080721;27;47668;-62
2021/11/17 06:22:24;;;;;;;;;58.25;43.25;;;;;9.11;72.48;101452.97;5081013;27;45390;-62
2021/11/17 06:24:50;;;;;;;;;53.00;40.25;;;;;9.11;72.10;101438.09;5097686;27;46315;-62
2021/11/17 06:27:16;;;;;;;;;57.75;43.25;;;;;9.12;72.18;101444.16;5097959;27;45422;-62
2021/11/17 06:29:44;;;;;;;;;55.50;42.25;;;;;9.12;72.51;101449.41;5080971;27;45386;-62
2021/11/17 06:32:09;;;;;;;;;54.25;41.25;;;;;9.12;72.76;101447.66;5099056;27;45481;-61
2021/11/17 06:34:39;;;;;;;;;56.50;41.75;;;;;9.12;72.42;101449.41;5097769;27;47763;-62
2021/11/17 06:37:12;;;;;;;;;53.50;39.00;;;;;9.14;72.76;101444.91;5098875;27;45191;-62
2021/11/17 06:39:41;;;;;;;;;56.25;42.75;;;;;9.15;72.84;101443.97;5097722;27;45367;-62
2021/11/17 06:42:09;;;;;;;;;52.00;39.50;;;;;9.17;72.83;101444.69;5098429;27;45572;-62
2021/11/17 06:44:34;;;;;;;;;58.50;43.75;;;;;9.17;72.65;101442.06;5080543;27;45445;-62
2021/11/17 06:47:00;;;;;;;;;55.00;42.25;;;;;9.17;72.81;101455.19;5098974;27;45369;-62
2021/11/17 06:49:25;;;;;;;;;55.25;41.25;;;;;9.17;72.69;101463.06;5098165;27;60963;-62
2021/11/17 06:51:51;;;;;;;;;58.00;42.25;;;;;9.16;72.60;101462.22;5098656;27;45341;-62
2021/11/17 06:54:17;;;;;;;;;61.25;44.00;;;;;9.17;72.72;101470.91;5098590;27;45467;-61
2021/11/17 06:56:42;;;;;;;;;55.00;40.00;;;;;9.17;72.63;101469.16;5098441;27;45219;-62
2021/11/17 06:59:08;;;;;;;;;53.25;38.75;;;;;9.18;72.91;101476.06;5098071;27;52601;-62
2021/11/17 07:01:33;;;;;;;;;55.25;41.25;;;;;9.19;72.81;101492.63;5098420;27;45955;-62
2021/11/17 07:03:59;;;;;;;;;51.25;42.50;;;;;9.18;73.09;101489.19;5097033;27;48504;-62
2021/11/17 07:06:24;;;;;;;;;53.00;40.25;;;;;9.17;73.03;101494.53;5098512;27;45268;-61
2021/11/17 07:08:50;;;;;;;;;54.50;42.00;;;;;9.17;73.05;101500.63;5098496;27;45423;-61
2021/11/17 07:11:15;;;;;;;;;56.00;42.50;;;;;9.16;73.23;101506.81;5097136;27;45559;-61
2021/11/17 07:13:41;;;;;;;;;53.00;39.00;;;;;9.18;73.28;101506.69;5097251;27;67484;-61
2021/11/17 07:16:06;;;;;;;;;55.00;40.50;;;;;9.18;73.42;101517.19;5098035;27;45385;-61
2021/11/17 07:18:32;;;;;;;;;55.50;43.00;;;;;9.18;73.30;101518.03;5098256;27;45230;-61
2021/11/17 07:20:58;;;;;;;;;52.75;40.00;;;;;9.20;73.56;101531.03;5098302;27;45354;-62
2021/11/17 07:23:24;;;;;;;;;57.50;41.50;;;;;9.23;73.65;101538.69;5098075;27;46322;-62
2021/11/17 07:25:49;;;;;;;;;55.50;39.50;;;;;9.24;73.65;101534.31;5097839;27;45352;-62
2021/11/17 07:28:15;;;;;;;;;56.25;43.50;;;;;9.26;73.36;101540.28;5097327;27;60385;-62
2021/11/17 07:30:41;;;;;;;;;50.00;38.75;;;;;9.26;73.76;101541.09;5098238;27;45338;-61
2021/11/17 07:33:06;;;;;;;;;51.25;39.50;;;;;9.30;73.60;101546.97;5079703;27;46013;-62
2021/11/17 07:35:33;;;;;;;;;54.00;37.50;;;;;9.30;73.72;101549.59;5097243;27;45485;-61
2021/11/17 07:38:01;;;;;;;;;52.50;42.00;;;;;9.31;73.63;101549.50;5098129;27;45335;-62
2021/11/17 07:40:31;;;;;;;;;53.50;39.00;;;;;9.31;73.95;101552.13;5098053;27;45588;-62
2021/11/17 07:42:56;;;;;;;;;56.75;42.50;;;;;9.34;73.89;101562.41;5097847;27;46186;-62
2021/11/17 07:45:22;;;;;;;;;56.50;42.50;;;;;9.36;74.28;101562.31;5097502;27;45299;-62
2021/11/17 07:47:48;;;;;;;;;55.25;40.25;;;;;9.39;74.54;101571.78;5097946;27;45190;-62
2021/11/17 07:50:14;;;;;;;;;48.75;38.75;;;;;9.43;75.23;101568.00;5078868;27;55054;-61
2021/11/17 07:52:39;;;;;;;;;41.50;32.50;;;;;9.49;75.71;101575.47;5097580;27;45730;-61
2021/11/17 07:55:05;;;;;;;;;36.50;32.00;;;;;9.54;75.84;101572.50;5079559;27;45340;-61
2021/11/17 07:57:31;;;;;;;;;40.50;30.50;;;;;9.59;76.06;101571.25;5097752;27;45223;-62
2021/11/17 07:59:57;;;;;;;;;34.00;27.50;;;;;9.64;75.85;101570.94;5097064;27;63407;-62
2021/11/17 08:02:23;;;;;;;;;34.25;30.00;;;;;9.70;76.13;101559.19;5062702;27;47359;-62
2021/11/17 08:04:49;;;;;;;;;36.00;31.50;;;;;9.76;75.87;101569.28;5079154;27;45954;-62
2021/11/17 08:07:18;;;;;;;;;33.75;28.25;;;;;9.78;76.02;101559.50;5078818;27;58003;-62
2021/11/17 08:09:43;;;;;;;;;41.25;29.75;;;;;9.86;75.88;101569.47;5097708;27;45564;-62
2021/11/17 08:12:09;;;;;;;;;39.25;32.75;;;;;9.90;76.26;101565.69;5079423;27;45367;-62
2021/11/17 08:14:34;;;;;;;;;36.00;30.75;;;;;9.95;75.86;101564.44;5097353;27;45504;-61
2021/11/17 08:17:00;;;;;;;;;47.25;33.00;;;;;10.00;76.01;101565.91;5096903;27;60162;-62
2021/11/17 08:19:26;;;;;;;;;45.25;34.75;;;;;10.04;75.83;101570.00;5096255;27;45637;-62
2021/11/17 08:21:51;;;;;;;;;41.75;32.75;;;;;10.08;75.96;101559.16;5097055;27;45446;-61
2021/11/17 08:24:17;;;;;;;;;39.75;33.75;;;;;10.11;76.24;101558.09;5097121;27;45394;-62
2021/11/17 08:26:42;;;;;;;;;42.50;35.25;;;;;10.15;75.82;101567.44;5096777;27;57326;-62
2021/11/17 08:29:09;;;;;;;;;47.75;38.00;;;;;10.20;75.89;101573.22;5096785;27;59002;-62
2021/11/17 08:31:35;;;;;;;;;43.00;34.25;;;;;10.25;75.87;101575.53;5096820;27;45937;-62
2021/11/17 08:34:00;;;;;;;;;47.50;33.50;;;;;10.28;76.13;101583.19;5097104;27;45713;-61
2021/11/17 08:36:26;;;;;;;;;41.50;32.00;;;;;10.33;76.01;101585.47;5096373;27;67994;-62
2021/11/17 08:38:54;;;;;;;;;45.75;36.00;;;;;10.37;75.88;101589.56;5078452;27;45685;-62
2021/11/17 08:41:21;;;;;;;;;44.25;35.50;;;;;10.39;75.90;101588.53;5097124;27;45395;-62
2021/11/17 08:43:46;;;;;;;;;47.75;34.00;;;;;10.44;76.12;101592.63;5079095;27;45444;-61
2021/11/17 08:46:12;;;;;;;;;42.75;34.00;;;;;10.47;76.18;101589.78;5096299;27;61364;-62
2021/11/17 08:48:37;;;;;;;;;42.25;30.00;;;;;10.51;75.96;101591.25;5095881;27;45415;-62
2021/11/17 08:51:05;;;;;;;;;44.00;32.25;;;;;10.54;75.74;101584.00;5095605;27;46532;-62
2021/11/17 08:53:31;;;;;;;;;52.50;38.50;;;;;10.59;75.87;101585.47;5095580;27;46042;-62
2021/11/17 08:55:58;;;;;;;;;47.50;37.00;;;;;10.62;75.71;101582.56;5095820;27;45386;-62
2021/11/17 08:58:23;;;;;;;;;44.50;35.75;;;;;10.65;75.31;101590.25;5096907;27;45506;-62
2021/11/17 09:00:49;;;;;;;;;41.75;31.50;;;;;10.68;75.38;101592.66;5078563;27;46464;-61
2021/11/17 09:03:14;;;;;;;;;39.50;30.50;;;;;10.71;75.45;101595.06;5095997;27;67951;-62
2021/11/17 09:05:46;;;;;;;;;45.75;34.75;;;;;10.74;75.40;101588.75;5097021;27;45240;-62
2021/11/17 09:08:12;;;;;;;;;43.75;33.00;;;;;10.76;75.26;101592.13;5078624;27;45436;-62
2021/11/17 09:10:40;;;;;;;;;49.75;37.75;;;;;10.80;74.99;101590.94;5095738;27;45499;-62
2021/11/17 09:13:06;;;;;;;;;43.75;34.25;;;;;10.82;75.47;101596.94;5095294;27;45359;-62
2021/11/17 09:15:33;;;;;;;;;36.00;32.00;;;;;10.85;75.38;101594.09;5096422;27;45328;-62
2021/11/17 09:17:59;;;;;;;;;42.00;31.25;;;;;10.89;75.39;101597.31;5095831;27;45489;-62
2021/11/17 09:20:24;;;;;;;;;40.00;34.25;;;;;10.94;75.07;101597.81;5095900;27;45590;-62
2021/11/17 09:22:50;;;;;;;;;45.75;34.00;;;;;10.98;75.35;101597.47;5095790;27;65578;-62
2021/11/17 09:25:16;;;;;;;;;40.25;32.50;;;;;11.03;75.56;101599.78;5096510;27;45241;-62
2021/11/17 09:27:42;;;;;;;;;47.75;34.00;;;;;11.07;74.98;101603.88;5097888;27;45405;-62
2021/11/17 09:30:09;;;;;;;;;42.50;32.00;;;;;11.11;74.84;101605.31;5091120;27;68353;-61
2021/11/17 09:32:34;;;;;;;;;41.75;34.00;;;;;11.14;74.87;101614.75;5079854;27;45395;-61
2021/11/17 09:35:02;;;;;;;;;39.25;30.50;;;;;11.18;74.77;101604.84;5078740;27;63413;-60
2021/11/17 09:37:27;;;;;;;;;46.25;35.00;;;;;11.20;74.98;101616.09;5080930;27;45469;-62
2021/11/17 09:39:54;;;;;;;;;46.00;31.75;;;;;11.22;74.64;101611.56;5077897;27;45531;-61
2021/11/17 09:42:20;;;;;;;;;46.75;35.50;;;;;11.24;74.65;101621.03;5077695;27;45460;-62
2021/11/17 09:44:45;;;;;;;;;47.25;35.00;;;;;11.25;74.34;101616.59;5078012;27;45405;-61
2021/11/17 09:47:15;;;;;;;;;43.00;33.00;;;;;11.26;74.05;101623.53;5053513;27;45359;-62
2021/11/17 09:49:49;;;;;;;;;43.00;33.00;;;;;11.26;74.41;101629.66;5077868;27;51309;-62
2021/11/17 09:52:17;;;;;;;;;37.75;29.25;;;;;11.28;74.16;101640.91;5082293;27;45514;-61
2021/11/17 09:55:09;;;;;;;;;37.75;31.00;;;;;11.28;74.09;101635.63;5077590;27;46148;-61
2021/11/17 09:57:37;;;;;;;;;38.75;33.00;;;;;11.30;74.22;101637.31;5058005;27;45425;-62
2021/11/17 10:00:05;;;;;;;;;44.25;32.75;;;;;11.30;74.31;101646.03;5082188;27;45444;-61
2021/11/17 10:02:33;;;;;;;;;43.00;32.25;;;;;11.32;74.51;101652.03;5078178;27;46107;-62
2021/11/17 10:05:14;;;;;;;;;41.75;32.75;;;;;11.34;74.48;101658.00;5078891;27;45278;-62
2021/11/17 10:11:19;;;;;;;;;45.75;35.00;;;;;11.39;74.86;101653.25;5068300;27;45933;-62
2021/11/17 10:13:36;;;;;;;;;49.50;34.50;;;;;11.41;74.40;101643.47;5067729;27;45659;-61
2021/11/17 10:16:01;;;;;;;;;44.75;34.00;;;;;11.44;74.70;101647.63;5060317;27;45623;-62
2021/11/17 10:18:40;;;;;;;;;44.75;34.25;;;;;11.47;74.56;101651.84;5078232;27;45399;-61
2021/11/17 10:21:16;;;;;;;;;45.75;34.00;;;;;11.49;74.37;101649.94;5088396;27;45508;-61
2021/11/17 10:24:01;;;;;;;;;45.50;34.00;;;;;11.52;74.49;101647.09;5077066;27;45939;-61
2021/11/17 10:26:27;;;;;;;;;43.75;34.50;;;;;11.56;74.59;101643.28;5073964;28;45427;-62
2021/11/17 10:28:57;;;;;;;;;36.00;32.00;;;;;11.59;74.60;101653.56;5077338;28;45459;-62
2021/11/17 10:31:52;;;;;;;;;42.75;34.00;;;;;11.61;74.38;101656.06;5077119;28;45363;-61
2021/11/17 10:34:21;;;;;;;;;44.75;36.25;;;;;11.63;74.78;101652.38;5076201;28;45922;-61
2021/11/17 10:36:54;;;;;;;;;46.25;34.50;;;;;11.68;74.38;101646.75;5077353;28;45257;-62
2021/11/17 10:39:34;;;;;;;;;39.75;33.50;;;;;11.73;74.30;101647.25;5057729;28;45649;-61
2021/11/17 10:42:10;;;;;;;;;40.25;33.25;;;;;11.77;74.37;101658.38;5058409;28;45619;-62
2021/11/17 10:44:46;;;;;;;;;42.75;31.50;;;;;11.82;74.35;101651.81;5076834;28;45505;-62
2021/11/17 10:47:36;;;;;;;;;38.75;33.00;;;;;11.87;74.50;101654.09;5059820;28;45716;-61
2021/11/17 10:50:04;;;;;;;;;40.25;34.00;;;;;11.94;74.21;101654.47;5077184;28;45403;-62
2021/11/17 10:52:39;;;;;;;;;48.00;38.00;;;;;11.97;74.05;101657.72;5076183;28;46834;-62
2021/11/17 10:55:06;;;;;;;;;40.75;32.75;;;;;12.04;73.83;101654.66;5074603;28;45956;-61
2021/11/17 10:57:34;;;;;;;;;42.00;33.00;;;;;12.09;73.96;101663.03;5042133;28;45451;-62
2021/11/17 11:00:00;;;;;;;;;37.75;32.75;;;;;12.12;73.96;101655.72;5059021;28;45443;-61
2021/11/17 11:02:26;;;;;;;;;35.00;31.00;;;;;12.18;73.74;101659.69;5076188;28;46533;-61
2021/11/17 11:04:56;;;;;;;;;37.00;31.50;;;;;12.22;73.09;101663.75;5076281;28;45838;-62
2021/11/17 11:07:41;;;;;;;;;34.75;30.00;;;;;12.27;73.02;101660.75;5042749;28;45337;-61
2021/11/17 11:10:08;;;;;;;;;43.75;33.00;;;;;12.32;72.83;101658.63;5060624;28;46055;-62
2021/11/17 11:12:33;;;;;;;;;41.25;33.00;;;;;12.38;73.38;101654.66;5075842;28;45561;-62
2021/11/17 11:15:35;;;;;;;;;39.25;29.75;;;;;12.42;72.52;101651.66;5076663;28;45551;-61
2021/11/17 11:18:03;;;;;;;;;36.75;29.00;;;;;12.49;72.45;101654.66;5066167;28;45530;-62
2021/11/17 11:20:35;;;;;;;;;37.00;30.25;;;;;12.55;72.74;101650.69;5076493;28;45468;-62
2021/11/17 11:23:07;;;;;;;;;36.25;30.25;;;;;12.61;72.48;101648.41;5058277;28;46307;-62
2021/11/17 11:25:38;;;;;;;;;35.50;27.50;;;;;12.69;71.61;101646.97;5083949;27;45735;-61
2021/11/17 11:28:21;;;;;;;;;35.50;31.75;;;;;12.76;71.13;101634.94;5076661;27;45485;-62
2021/11/17 11:30:48;;;;;;;;;36.25;30.50;;;;;12.82;71.17;101634.44;5083105;27;45227;-62
2021/11/17 11:33:22;;;;;;;;;32.00;29.75;;;;;12.88;70.97;101628.69;5081314;27;45453;-62
2021/11/17 11:36:12;;;;;;;;;36.75;30.25;;;;;12.95;70.15;101628.19;5085188;27;46086;-61
2021/11/17 11:38:51;;;;;;;;;35.00;30.25;;;;;12.99;70.07;101625.16;5080245;27;45316;-61
2021/11/17 11:41:19;;;;;;;;;30.00;24.00;;;;;13.03;69.37;101633.69;5086933;27;45248;-60
2021/11/17 11:43:44;;;;;;;;;36.25;31.25;;;;;13.04;69.17;101633.53;5087752;27;45547;-62
2021/11/17 11:46:31;;;;;;;;;33.50;29.00;;;;;13.06;69.09;101633.44;5080733;27;45367;-62
2021/11/17 11:49:03;;;;;;;;;29.75;24.50;;;;;13.09;69.24;101634.97;5076698;27;45459;-62
2021/11/17 11:51:48;;;;;;;;;26.50;23.75;;;;;13.10;68.79;101640.13;5074134;27;45342;-61
2021/11/17 11:54:25;;;;;;;;;34.00;28.50;;;;;13.14;69.01;101644.19;5073429;27;45714;-63
2021/11/17 11:57:01;;;;;;;;;30.00;26.25;;;;;13.18;68.35;101639.50;5075521;27;45323;-61
2021/11/17 11:59:27;;;;;;;;;27.75;24.25;;;;;13.20;68.44;101637.56;5078823;27;45614;-61
2021/11/17 12:02:14;;;;;;;;;28.25;25.75;;;;;13.23;68.59;101649.69;5075920;27;45534;-62
2021/11/17 12:05:07;;;;;;;;;31.75;29.25;;;;;13.26;68.53;101639.72;5063256;27;45539;-61
2021/11/17 12:07:40;;;;;;;;;26.75;22.75;;;;;13.31;68.75;101639.31;5073087;27;45450;-62
2021/11/17 12:10:20;;;;;;;;;29.00;25.25;;;;;13.36;68.51;101635.34;5073446;27;45740;-62
2021/11/17 12:12:45;;;;;;;;;32.25;28.25;;;;;13.41;68.17;101629.69;5076257;27;45580;-62
2021/11/17 12:15:27;;;;;;;;;27.75;23.00;;;;;13.44;67.84;101624.16;5058653;27;46489;-61
2021/11/17 12:18:18;;;;;;;;;30.25;25.25;;;;;13.49;68.13;101624.63;5076444;27;46062;-62
2021/11/17 12:21:01;;;;;;;;;24.75;22.00;;;;;13.53;67.79;101627.00;5071238;27;45461;-61
2021/11/17 12:23:33;;;;;;;;;29.25;24.25;;;;;13.54;67.36;101628.69;5073905;27;45564;-60
2021/11/17 12:26:07;;;;;;;;;21.25;20.75;;;;;13.56;67.55;101629.41;5075578;27;46472;-60
2021/11/17 12:28:32;;;;;;;;;30.00;25.75;;;;;13.55;67.93;101633.81;5049476;27;45969;-61
2021/11/17 12:31:05;;;;;;;;;29.50;25.00;;;;;13.58;67.90;101632.75;5058006;27;45463;-62
2021/11/17 12:33:46;;;;;;;;;32.25;27.50;;;;;13.62;67.56;101634.16;5059019;27;45459;-62
2021/11/17 12:36:33;;;;;;;;;30.50;28.75;;;;;13.68;67.57;101644.22;5058195;27;45478;-62
2021/11/17 12:39:20;;;;;;;;;31.50;24.25;;;;;13.73;67.32;101639.38;5073659;27;45371;-61
2021/11/17 12:41:52;;;;;;;;;31.50;28.50;;;;;13.76;67.47;101644.41;5066424;27;45443;-62
2021/11/17 12:44:27;;;;;;;;;28.25;24.50;;;;;13.82;67.34;101639.56;5076217;27;45359;-62
2021/11/17 12:47:06;;;;;;;;;24.25;23.00;;;;;13.85;66.95;101647.22;5076498;27;45651;-62
2021/11/17 12:49:40;;;;;;;;;30.75;26.50;;;;;13.86;67.14;101644.47;5077503;27;45959;-62
2021/11/17 12:52:11;;;;;;;;;32.50;26.25;;;;;13.87;67.43;101634.72;5051704;27;45493;-62
2021/11/17 12:54:46;;;;;;;;;46.25;38.50;;;;;13.88;67.40;101637.25;5078237;27;45745;-62
2021/11/17 12:57:25;;;;;;;;;34.25;30.00;;;;;13.90;67.35;101631.81;5063986;28;46250;-61
2021/11/17 12:59:54;;;;;;;;;25.00;23.50;;;;;13.92;66.88;101624.59;5065117;27;45331;-63
2021/11/17 13:02:23;;;;;;;;;28.25;21.50;;;;;13.92;66.85;101629.88;5075253;27;45561;-61
2021/11/17 13:04:52;;;;;;;;;32.00;26.75;;;;;13.94;66.69;101630.59;5076278;27;45621;-62
2021/11/17 13:07:35;;;;;;;;;28.00;24.50;;;;;13.93;66.69;101636.84;5076065;27;46107;-62
2021/11/17 13:10:01;;;;;;;;;26.50;23.25;;;;;13.90;66.59;101632.66;5046844;27;45834;-62
2021/11/17 13:12:27;;;;;;;;;22.50;21.00;;;;;13.88;66.83;101631.97;5078159;27;45671;-62
2021/11/17 13:15:11;;;;;;;;;30.75;25.25;;;;;13.86;66.89;101633.03;5081458;27;45684;-62
2021/11/17 13:17:43;;;;;;;;;29.00;24.00;;;;;13.86;66.69;101635.69;5071703;27;45560;-62
2021/11/17 13:20:14;;;;;;;;;30.50;24.75;;;;;13.84;67.17;101635.81;5074980;27;46017;-62
2021/11/17 13:22:47;;;;;;;;;21.75;20.75;;;;;13.82;67.72;101631.63;5079538;27;45258;-62
2021/11/17 13:25:12;;;;;;;;;27.00;23.25;;;;;13.80;67.73;101635.22;5075699;27;45296;-61
2021/11/17 13:27:44;;;;;;;;;22.50;20.50;;;;;13.78;67.70;101642.44;5076841;27;45414;-62
2021/11/17 13:30:28;;;;;;;;;31.75;29.50;;;;;13.78;68.02;101638.97;5074528;27;46047;-62
2021/11/17 13:32:53;;;;;;;;;22.75;21.00;;;;;13.79;67.76;101643.31;5086326;27;45513;-62
2021/11/17 13:35:30;;;;;;;;;25.75;22.00;;;;;13.79;67.68;101636.19;5080336;27;45281;-62
2021/11/17 13:38:12;;;;;;;;;19.00;15.50;;;;;13.83;66.69;101638.59;5048135;27;47122;-62
2021/11/17 13:40:37;;;;;;;;;20.25;17.75;;;;;13.83;67.34;101642.06;5077036;27;46506;-62
2021/11/17 13:43:02;;;;;;;;;14.75;10.75;;;;;13.85;66.53;101650.72;5084005;27;46059;-62
2021/11/17 13:45:28;;;;;;;;;7.50;6.00;;;;;13.84;66.25;101646.41;5080843;27;45398;-62
2021/11/17 13:47:53;;;;;;;;;10.25;9.00;;;;;13.84;66.18;101656.09;5083407;27;46234;-62
2021/11/17 13:50:20;;;;;;;;;13.00;8.75;;;;;13.82;66.11;101655.41;5064603;27;45293;-62
2021/11/17 13:52:46;;;;;;;;;7.25;6.50;;;;;13.79;65.85;101652.03;5086976;27;45436;-62
2021/11/17 13:55:15;;;;;;;;;7.75;4.75;;;;;13.80;65.54;101656.38;5085953;27;45351;-62
2021/11/17 13:57:41;;;;;;;;;5.25;5.00;;;;;13.79;65.56;101662.63;5066783;27;45425;-62
2021/11/17 14:00:09;;;;;;;;;5.25;5.00;;;;;13.78;65.28;101657.47;5069255;27;45463;-62
2021/11/17 14:02:34;;;;;;;;;7.50;6.25;;;;;13.78;65.77;101658.28;5074975;27;45366;-63
2021/11/17 14:05:00;;;;;;;;;6.25;6.00;;;;;13.80;65.13;101663.47;5077617;27;45340;-62
2021/11/17 14:07:26;;;;;;;;;8.00;7.75;;;;;13.79;65.17;101664.44;5074803;27;46307;-62
2021/11/17 14:09:51;;;;;;;;;7.00;6.50;;;;;13.80;65.05;101659.00;5082709;27;45418;-62
2021/11/17 14:12:16;;;;;;;;;8.25;6.75;;;;;13.78;65.48;101660.94;5086608;27;61888;-63
2021/11/17 14:14:42;;;;;;;;;7.50;7.50;;;;;13.77;65.09;101658.44;5083048;27;45502;-62